Portada
METAR-TAF:

METAR-TAF

Aeroports :

Base Naval de Rota

Rota, Espanya

latitud: 36-39N, longitud: 006-21W, altitud: 26 m

Observació

L'informe es va fer fa 36 minuts, a les 05:00 UTC
Vent 4 kt del Sud/Sud-Est
Temperatura 12°C
Humitat 100%
Pressió 1030 hPa
Visibilitat: 0400 m
boira

METAR: LERT 180500Z 15004KT 0400 R10/0450N R28/0450N FG VV001 12/12 Q1030 NOSIG

Hora: 06:36 (05:36 UTC)

Pronòstic

L'informe es va fer fa 3 hores i 36 minuts, a les 02:00 UTC
Pronòstic vàlid del 18 a les 03 UTC al 18 a les 12 UTC
Vent 4 kt del Est
Visibilitat: 0300 m
a una alçada de 100 ft
boira
Evolucionant progressivament
l' 18 a les 08 UTC al 18 a les 11 UTC
Vent 10 kt del Sud
Visibilitat: 2000 m
Cel ennuvolat a una alçada de 500 ft
boirina
Temporalment
l' 18 a les 11 UTC al 18 a les 12 UTC
Visibilitat: 4000 m
Cel ennuvolat a una alçada de 1000 ft
pluja

TAF: LERT 180200Z 1803/1812 09004KT 0300 FG VV001 BECMG 1808/1811 17010KT 2000 BR BKN005 TEMPO 1811/1812 4000 RA BKN010

Observacions i pronòstics meteorològics de més de 4000 aeroports (METAR i TAF).

Les estacions disponibles són els punts grocs i vermells al mapa.

Posi el ratolí al punt desitjat per veure el nom de l'estació.

Feu clic per veure les observacions i els pronòstics meteorològics.

Per canviar el mapa: feu clic els botons verds amb una creu de color negre per apropar; al botó verd amb un guió per allunyar la imatge; o en les fletxes verdes per a mapes adjacents.


METAR-TAF: